sensor_id;sensor_type;location;lat;lon;timestamp;P1;P2;P0
76045;PMS7003;64741;41.730;44.788;2023-11-19T00:01:13;34.8;30.8;22.4
76045;PMS7003;64741;41.730;44.788;2023-11-19T00:06:13;35.2;31;22
76045;PMS7003;64741;41.730;44.788;2023-11-19T00:11:03;33.6;30.4;21.2
76045;PMS7003;64741;41.730;44.788;2023-11-19T00:16:11;32.2;29.2;20.8
76045;PMS7003;64741;41.730;44.788;2023-11-19T00:21:09;35.6;31.4;22
76045;PMS7003;64741;41.730;44.788;2023-11-19T00:26:13;33.4;29;21
76045;PMS7003;64741;41.730;44.788;2023-11-19T00:31:11;31.8;28.4;21
76045;PMS7003;64741;41.730;44.788;2023-11-19T00:36:05;30.4;28.2;21
76045;PMS7003;64741;41.730;44.788;2023-11-19T00:41:11;32.2;30.2;21.2
76045;PMS7003;64741;41.730;44.788;2023-11-19T00:46:09;33.4;28.8;21
76045;PMS7003;64741;41.730;44.788;2023-11-19T00:51:11;28;25.8;19.4
76045;PMS7003;64741;41.730;44.788;2023-11-19T00:56:11;27.8;25;18.4
76045;PMS7003;64741;41.730;44.788;2023-11-19T01:01:03;30;26.6;19.2
76045;PMS7003;64741;41.730;44.788;2023-11-19T01:06:13;29;25.8;19
76045;PMS7003;64741;41.730;44.788;2023-11-19T01:11:09;28;25.2;18.6
76045;PMS7003;64741;41.730;44.788;2023-11-19T01:16:13;25.8;23.2;18
76045;PMS7003;64741;41.730;44.788;2023-11-19T01:21:11;26.6;22.8;18.6
76045;PMS7003;64741;41.730;44.788;2023-11-19T01:26:03;25.4;24;18.2
76045;PMS7003;64741;41.730;44.788;2023-11-19T01:31:11;22.8;20.4;15.8
76045;PMS7003;64741;41.730;44.788;2023-11-19T01:35:51;27;24.2;17
76045;PMS7003;64741;41.730;44.788;2023-11-19T01:40:59;24.4;22.2;16.8
76045;PMS7003;64741;41.730;44.788;2023-11-19T01:46:12;22.8;20.4;16
76045;PMS7003;64741;41.730;44.788;2023-11-19T01:50:53;25;21.2;16.8
76045;PMS7003;64741;41.730;44.788;2023-11-19T01:55:33;24.2;22.2;16.2
76045;PMS7003;64741;41.730;44.788;2023-11-19T02:01:09;22.6;19.4;14.6
76045;PMS7003;64741;41.730;44.788;2023-11-19T02:06:13;21.8;19.4;14.4
76045;PMS7003;64741;41.730;44.788;2023-11-19T02:11:11;21.2;19.8;14.6
76045;PMS7003;64741;41.730;44.788;2023-11-19T02:16:03;23;20.2;15.4
76045;PMS7003;64741;41.730;44.788;2023-11-19T02:21:13;22.8;20.6;16
76045;PMS7003;64741;41.730;44.788;2023-11-19T02:26:12;22;19.6;14.8
76045;PMS7003;64741;41.730;44.788;2023-11-19T02:31:13;21.2;19.4;14.6
76045;PMS7003;64741;41.730;44.788;2023-11-19T02:36:11;20.8;17.6;13.6
76045;PMS7003;64741;41.730;44.788;2023-11-19T02:40:53;18.6;17.2;13.4
76045;PMS7003;64741;41.730;44.788;2023-11-19T02:46:15;21;17.6;14.2
76045;PMS7003;64741;41.730;44.788;2023-11-19T02:51:09;20.4;17.8;13.4
76045;PMS7003;64741;41.730;44.788;2023-11-19T02:56:15;19.2;17.2;12.8
76045;PMS7003;64741;41.730;44.788;2023-11-19T03:01:13;19.8;16.6;13
76045;PMS7003;64741;41.730;44.788;2023-11-19T03:06:05;16.4;15.6;12.2
76045;PMS7003;64741;41.730;44.788;2023-11-19T03:11:15;16.8;15.4;12.2
76045;PMS7003;64741;41.730;44.788;2023-11-19T03:16:09;17.6;15.4;12
76045;PMS7003;64741;41.730;44.788;2023-11-19T03:21:01;18.4;16;12.6
76045;PMS7003;64741;41.730;44.788;2023-11-19T03:26:11;18;15.6;12.4
76045;PMS7003;64741;41.730;44.788;2023-11-19T03:31:04;19;16;12
76045;PMS7003;64741;41.730;44.788;2023-11-19T03:36:13;18;15.8;12.4
76045;PMS7003;64741;41.730;44.788;2023-11-19T03:41:10;17;15.4;12.4
76045;PMS7003;64741;41.730;44.788;2023-11-19T03:46:17;16.8;15.3;11.8
76045;PMS7003;64741;41.730;44.788;2023-11-19T03:51:11;13.8;13;9.4
76045;PMS7003;64741;41.730;44.788;2023-11-19T03:56:03;17.6;15.4;11.6
76045;PMS7003;64741;41.730;44.788;2023-11-19T04:01:13;18;16;12.2
76045;PMS7003;64741;41.730;44.788;2023-11-19T04:06:09;14.4;13.4;9.8
76045;PMS7003;64741;41.730;44.788;2023-11-19T04:11:13;16.8;14.8;11
76045;PMS7003;64741;41.730;44.788;2023-11-19T04:16:11;15.8;14.4;10.6
76045;PMS7003;64741;41.730;44.788;2023-11-19T04:20:51;14.8;14;11.2
76045;PMS7003;64741;41.730;44.788;2023-11-19T04:26:13;14.6;13.4;10.2
76045;PMS7003;64741;41.730;44.788;2023-11-19T04:31:07;14.4;12.8;9.2
76045;PMS7003;64741;41.730;44.788;2023-11-19T04:36:13;13.8;12.6;9.2
76045;PMS7003;64741;41.730;44.788;2023-11-19T04:41:09;14.2;12.8;9.8
76045;PMS7003;64741;41.730;44.788;2023-11-19T04:46:03;16;13.2;10.8
76045;PMS7003;64741;41.730;44.788;2023-11-19T04:51:13;13.8;12.4;9.4
76045;PMS7003;64741;41.730;44.788;2023-11-19T04:56:07;12.8;11.6;9.4
76045;PMS7003;64741;41.730;44.788;2023-11-19T05:01:13;13.2;11.4;9
76045;PMS7003;64741;41.730;44.788;2023-11-19T05:06:09;12.6;10.8;8.6
76045;PMS7003;64741;41.730;44.788;2023-11-19T05:11:01;13.2;11.2;8.4
76045;PMS7003;64741;41.730;44.788;2023-11-19T05:15:49;14.4;12.2;9.2
76045;PMS7003;64741;41.730;44.788;2023-11-19T05:21:05;12.4;11;8.4
76045;PMS7003;64741;41.730;44.788;2023-11-19T05:26:17;12.6;11.6;9.4
76045;PMS7003;64741;41.730;44.788;2023-11-19T05:31:09;13.2;12;9.2
76045;PMS7003;64741;41.730;44.788;2023-11-19T05:36:03;12.4;10.4;8.4
76045;PMS7003;64741;41.730;44.788;2023-11-19T05:41:13;13.4;11.8;9
76045;PMS7003;64741;41.730;44.788;2023-11-19T05:46:07;12;10.8;8.2
76045;PMS7003;64741;41.730;44.788;2023-11-19T05:51:11;12.4;10.2;8.4
76045;PMS7003;64741;41.730;44.788;2023-11-19T05:56:11;13.6;11.6;9.2
76045;PMS7003;64741;41.730;44.788;2023-11-19T06:01:05;13.8;12.8;9
76045;PMS7003;64741;41.730;44.788;2023-11-19T06:06:13;12.8;11.2;9.2
76045;PMS7003;64741;41.730;44.788;2023-11-19T06:11:09;11.6;10.6;8.4
76045;PMS7003;64741;41.730;44.788;2023-11-19T06:16:03;11.6;10.8;8.2
76045;PMS7003;64741;41.730;44.788;2023-11-19T06:21:11;11.8;10.4;8
76045;PMS7003;64741;41.730;44.788;2023-11-19T06:26:03;11.8;10.6;8.4
76045;PMS7003;64741;41.730;44.788;2023-11-19T06:31:03;12.2;10.6;7.8
76045;PMS7003;64741;41.730;44.788;2023-11-19T06:36:03;11.4;11;9
76045;PMS7003;64741;41.730;44.788;2023-11-19T06:41:06;9.8;9;6.8
76045;PMS7003;64741;41.730;44.788;2023-11-19T06:46:17;11.8;10.6;7.6
76045;PMS7003;64741;41.730;44.788;2023-11-19T06:51:05;13.4;11.6;9.4
76045;PMS7003;64741;41.730;44.788;2023-11-19T06:56:19;16.4;13.8;10.8
76045;PMS7003;64741;41.730;44.788;2023-11-19T07:01:07;15;13.2;10.4
76045;PMS7003;64741;41.730;44.788;2023-11-19T07:06:01;20.2;17.6;14
76045;PMS7003;64741;41.730;44.788;2023-11-19T07:11:11;18.6;16;13.2
76045;PMS7003;64741;41.730;44.788;2023-11-19T07:16:01;19.8;18.2;13.6
76045;PMS7003;64741;41.730;44.788;2023-11-19T07:21:05;22.2;18.4;14.6
76045;PMS7003;64741;41.730;44.788;2023-11-19T07:26:07;41.6;34.4;25
76045;PMS7003;64741;41.730;44.788;2023-11-19T07:31:07;44;37;27.4
76045;PMS7003;64741;41.730;44.788;2023-11-19T07:36:11;49.2;40.4;29.4
76045;PMS7003;64741;41.730;44.788;2023-11-19T07:41:07;54.4;44.4;31.8
76045;PMS7003;64741;41.730;44.788;2023-11-19T07:46:11;55.6;45;32.2
76045;PMS7003;64741;41.730;44.788;2023-11-19T07:51:10;56.6;45.2;33.2
76045;PMS7003;64741;41.730;44.788;2023-11-19T07:56:03;56.6;45.8;33.4
76045;PMS7003;64741;41.730;44.788;2023-11-19T08:01:15;60.4;48.2;34.4
76045;PMS7003;64741;41.730;44.788;2023-11-19T08:06:03;58.2;47.2;34.4
76045;PMS7003;64741;41.730;44.788;2023-11-19T08:10:55;59.2;47.6;34.6
76045;PMS7003;64741;41.730;44.788;2023-11-19T08:16:05;60.2;47.8;34.4
76045;PMS7003;64741;41.730;44.788;2023-11-19T08:21:07;61.8;48.4;35.2
76045;PMS7003;64741;41.730;44.788;2023-11-19T08:26:11;60.6;48;34.8
76045;PMS7003;64741;41.730;44.788;2023-11-19T08:31:09;58.4;46.8;33.6
76045;PMS7003;64741;41.730;44.788;2023-11-19T08:36:16;61.4;48.4;36
76045;PMS7003;64741;41.730;44.788;2023-11-19T08:41:11;58.8;48.2;34.8
76045;PMS7003;64741;41.730;44.788;2023-11-19T08:46:01;61.6;49.6;36.8
76045;PMS7003;64741;41.730;44.788;2023-11-19T08:51:11;59.8;48.2;35.4
76045;PMS7003;64741;41.730;44.788;2023-11-19T08:56:01;60.5;47.5;35
76045;PMS7003;64741;41.730;44.788;2023-11-19T09:01:01;55;45.2;32
76045;PMS7003;64741;41.730;44.788;2023-11-19T09:06:07;57.2;46.6;34
76045;PMS7003;64741;41.730;44.788;2023-11-19T09:11:07;59.4;47.4;34
76045;PMS7003;64741;41.730;44.788;2023-11-19T09:16:11;61.2;48.2;34.4
76045;PMS7003;64741;41.730;44.788;2023-11-19T09:21:03;60;47.8;34.4
76045;PMS7003;64741;41.730;44.788;2023-11-19T09:26:11;58.4;47.2;33.6
76045;PMS7003;64741;41.730;44.788;2023-11-19T09:31:16;58.4;46.8;34
76045;PMS7003;64741;41.730;44.788;2023-11-19T09:36:01;58.2;46.6;33.8
76045;PMS7003;64741;41.730;44.788;2023-11-19T09:41:13;56.4;45;33
76045;PMS7003;64741;41.730;44.788;2023-11-19T09:46:01;53.8;44;31.6
76045;PMS7003;64741;41.730;44.788;2023-11-19T09:50:59;52.4;42;30.2
76045;PMS7003;64741;41.730;44.788;2023-11-19T09:56:09;49.4;39.8;28.4
76045;PMS7003;64741;41.730;44.788;2023-11-19T10:01:09;46.6;37.8;26.4
76045;PMS7003;64741;41.730;44.788;2023-11-19T10:06:11;45.2;36.4;26
76045;PMS7003;64741;41.730;44.788;2023-11-19T10:11:07;41.4;34.2;24.6
76045;PMS7003;64741;41.730;44.788;2023-11-19T10:16:13;38;31.4;22.8
76045;PMS7003;64741;41.730;44.788;2023-11-19T10:21:11;38.4;31.4;22.2
76045;PMS7003;64741;41.730;44.788;2023-11-19T10:25:55;34.6;28.2;19.8
76045;PMS7003;64741;41.730;44.788;2023-11-19T10:31:11;31;26.2;19.6
76045;PMS7003;64741;41.730;44.788;2023-11-19T10:36:01;29;25.8;18.8
76045;PMS7003;64741;41.730;44.788;2023-11-19T10:41:01;28.4;25.4;18.8
76045;PMS7003;64741;41.730;44.788;2023-11-19T10:46:09;23.8;21.8;17.2
76045;PMS7003;64741;41.730;44.788;2023-11-19T10:51:05;27.4;23.8;18.6
76045;PMS7003;64741;41.730;44.788;2023-11-19T10:56:10;33;28;20.2
76045;PMS7003;64741;41.730;44.788;2023-11-19T11:01:07;30.4;27.4;20.2
76045;PMS7003;64741;41.730;44.788;2023-11-19T11:06:01;28.2;25.2;19
76045;PMS7003;64741;41.730;44.788;2023-11-19T11:11:07;28;24.8;18.8
76045;PMS7003;64741;41.730;44.788;2023-11-19T11:15:55;24.4;21.8;17.2
76045;PMS7003;64741;41.730;44.788;2023-11-19T11:21:08;26.4;24.4;18
76045;PMS7003;64741;41.730;44.788;2023-11-19T11:26:00;21.2;19.6;15.2
76045;PMS7003;64741;41.730;44.788;2023-11-19T11:31:15;23.6;21.4;16.6
76045;PMS7003;64741;41.730;44.788;2023-11-19T11:36:04;22.4;20;15
76045;PMS7003;64741;41.730;44.788;2023-11-19T11:41:17;17.8;16.6;13.4
76045;PMS7003;64741;41.730;44.788;2023-11-19T11:46:07;21.4;19.2;14
76045;PMS7003;64741;41.730;44.788;2023-11-19T11:51:07;24.8;21.6;16.8
76045;PMS7003;64741;41.730;44.788;2023-11-19T11:56:09;31;27.2;20.2
76045;PMS7003;64741;41.730;44.788;2023-11-19T12:01:07;29;25.8;19.4
76045;PMS7003;64741;41.730;44.788;2023-11-19T12:06:13;34.8;29.6;22.6
76045;PMS7003;64741;41.730;44.788;2023-11-19T12:11:09;36.6;31.6;22.4
76045;PMS7003;64741;41.730;44.788;2023-11-19T12:16:08;36.6;31.2;23
76045;PMS7003;64741;41.730;44.788;2023-11-19T12:21:26;44.4;36.6;26.2
76045;PMS7003;64741;41.730;44.788;2023-11-19T12:25:59;40.2;34.4;24.6
76045;PMS7003;64741;41.730;44.788;2023-11-19T12:31:07;42;34.6;24.6
76045;PMS7003;64741;41.730;44.788;2023-11-19T12:36:05;38.8;32.6;24.2
76045;PMS7003;64741;41.730;44.788;2023-11-19T12:41:05;36;31.4;22.8
76045;PMS7003;64741;41.730;44.788;2023-11-19T12:46:18;38.2;32.4;23.6
76045;PMS7003;64741;41.730;44.788;2023-11-19T12:51:07;36;31.8;23.4
76045;PMS7003;64741;41.730;44.788;2023-11-19T12:56:13;41.6;35.6;26
76045;PMS7003;64741;41.730;44.788;2023-11-19T13:01:03;66.8;54.8;38.4
76045;PMS7003;64741;41.730;44.788;2023-11-19T13:06:02;72.6;57.2;39.4
76045;PMS7003;64741;41.730;44.788;2023-11-19T13:11:13;79.6;66.4;44.8
76045;PMS7003;64741;41.730;44.788;2023-11-19T13:16:01;84.4;74.4;51
76045;PMS7003;64741;41.730;44.788;2023-11-19T13:21:01;84.4;75;50.4
76045;PMS7003;64741;41.730;44.788;2023-11-19T13:25:47;87.8;78.4;52.6
76045;PMS7003;64741;41.730;44.788;2023-11-19T13:31:09;92.6;81.6;55.8
76045;PMS7003;64741;41.730;44.788;2023-11-19T13:36:09;91.6;80.8;54.8
76045;PMS7003;64741;41.730;44.788;2023-11-19T13:41:07;88.6;80;53.8
76045;PMS7003;64741;41.730;44.788;2023-11-19T13:46:13;87.4;76.2;51.2
76045;PMS7003;64741;41.730;44.788;2023-11-19T13:51:09;86;76;52
76045;PMS7003;64741;41.730;44.788;2023-11-19T13:56:03;89.8;77.6;52
76045;PMS7003;64741;41.730;44.788;2023-11-19T14:01:11;88;75.3;51.5
76045;PMS7003;64741;41.730;44.788;2023-11-19T14:06:01;91.4;78.2;51.4
76045;PMS7003;64741;41.730;44.788;2023-11-19T14:11:01;83;72;47.6
76045;PMS7003;64741;41.730;44.788;2023-11-19T14:16:07;83.2;71.4;49.2
76045;PMS7003;64741;41.730;44.788;2023-11-19T14:21:09;81.2;71.4;48.6
76045;PMS7003;64741;41.730;44.788;2023-11-19T14:26:07;77.4;67.6;47.2
76045;PMS7003;64741;41.730;44.788;2023-11-19T14:31:07;80;70.6;48.2
76045;PMS7003;64741;41.730;44.788;2023-11-19T14:36:11;77;65.8;45
76045;PMS7003;64741;41.730;44.788;2023-11-19T14:41:09;77.8;66.8;46.2
76045;PMS7003;64741;41.730;44.788;2023-11-19T14:46:01;78.2;66.2;44.8
76045;PMS7003;64741;41.730;44.788;2023-11-19T14:51:13;76.4;64.6;43.8
76045;PMS7003;64741;41.730;44.788;2023-11-19T14:56:01;76;63.4;43.6
76045;PMS7003;64741;41.730;44.788;2023-11-19T15:01:05;73.4;61.6;43.2
76045;PMS7003;64741;41.730;44.788;2023-11-19T15:06:07;75.8;63.4;44.4
76045;PMS7003;64741;41.730;44.788;2023-11-19T15:11:07;77.4;63.2;43.6
76045;PMS7003;64741;41.730;44.788;2023-11-19T15:16:11;74;60.6;42
76045;PMS7003;64741;41.730;44.788;2023-11-19T15:21:07;73.4;58.6;39.6
76045;PMS7003;64741;41.730;44.788;2023-11-19T15:26:01;74.4;60.6;41
76045;PMS7003;64741;41.730;44.788;2023-11-19T15:31:09;71.6;58;40.6
76045;PMS7003;64741;41.730;44.788;2023-11-19T15:36:01;74.2;59.6;39.4
76045;PMS7003;64741;41.730;44.788;2023-11-19T15:41:13;72.2;57.8;39
76045;PMS7003;64741;41.730;44.788;2023-11-19T15:46:01;70.2;54.2;38
76045;PMS7003;64741;41.730;44.788;2023-11-19T15:51:03;71.4;56.8;38.8
76045;PMS7003;64741;41.730;44.788;2023-11-19T15:56:05;70.8;55.6;38
76045;PMS7003;64741;41.730;44.788;2023-11-19T16:01:09;68.2;52.8;35.8
76045;PMS7003;64741;41.730;44.788;2023-11-19T16:06:13;66.4;50.4;33.8
76045;PMS7003;64741;41.730;44.788;2023-11-19T16:11:09;65.6;50.4;33.4
76045;PMS7003;64741;41.730;44.788;2023-11-19T16:16:12;66.2;51.6;34.8
76045;PMS7003;64741;41.730;44.788;2023-11-19T16:21:13;63.2;50;33.8
76045;PMS7003;64741;41.730;44.788;2023-11-19T16:26:01;66.2;50.6;34.2
76045;PMS7003;64741;41.730;44.788;2023-11-19T16:31:13;72;56.6;39.2
76045;PMS7003;64741;41.730;44.788;2023-11-19T16:36:06;94.8;83.2;56
76045;PMS7003;64741;41.730;44.788;2023-11-19T16:41:05;125.8;110.6;73.8
76045;PMS7003;64741;41.730;44.788;2023-11-19T16:46:07;136.4;118.2;78.2
76045;PMS7003;64741;41.730;44.788;2023-11-19T16:51:09;133.8;113.4;74.8
76045;PMS7003;64741;41.730;44.788;2023-11-19T16:56:11;127.2;107.8;70.6
76045;PMS7003;64741;41.730;44.788;2023-11-19T17:01:07;126.8;110.6;72.2
76045;PMS7003;64741;41.730;44.788;2023-11-19T17:05:53;126.4;109.4;71.4
76045;PMS7003;64741;41.730;44.788;2023-11-19T17:11:11;130.6;110.8;70
76045;PMS7003;64741;41.730;44.788;2023-11-19T17:16:03;115.8;105.2;68.8
76045;PMS7003;64741;41.730;44.788;2023-11-19T17:21:12;116.8;100.8;66.6
76045;PMS7003;64741;41.730;44.788;2023-11-19T17:26:03;117.2;100.2;65.4
76045;PMS7003;64741;41.730;44.788;2023-11-19T17:31:04;117.6;101;65.8
76045;PMS7003;64741;41.730;44.788;2023-11-19T17:36:07;117.2;101.2;66.2
76045;PMS7003;64741;41.730;44.788;2023-11-19T17:41:09;110.2;96.6;64
76045;PMS7003;64741;41.730;44.788;2023-11-19T17:46:01;108.4;94.2;61
76045;PMS7003;64741;41.730;44.788;2023-11-19T17:50:41;105.4;94;61.4
76045;PMS7003;64741;41.730;44.788;2023-11-19T17:56:13;105;92.2;60.4
76045;PMS7003;64741;41.730;44.788;2023-11-19T18:01:11;107.2;93;60.6
76045;PMS7003;64741;41.730;44.788;2023-11-19T18:06:01;99;87.8;58.3
76045;PMS7003;64741;41.730;44.788;2023-11-19T18:11:11;100.2;88;58
76045;PMS7003;64741;41.730;44.788;2023-11-19T18:16:04;94.4;82.4;52.6
76045;PMS7003;64741;41.730;44.788;2023-11-19T18:21:03;97.8;84;55.4
76045;PMS7003;64741;41.730;44.788;2023-11-19T18:26:09;88.8;77.4;50.6
76045;PMS7003;64741;41.730;44.788;2023-11-19T18:31:09;82;72.6;47
76045;PMS7003;64741;41.730;44.788;2023-11-19T18:36:11;81.8;71.4;47.4
76045;PMS7003;64741;41.730;44.788;2023-11-19T18:41:09;77.2;65.8;44.4
76045;PMS7003;64741;41.730;44.788;2023-11-19T18:46:13;82.2;70.8;46.8
76045;PMS7003;64741;41.730;44.788;2023-11-19T18:51:12;79.2;66.2;43.6
76045;PMS7003;64741;41.730;44.788;2023-11-19T18:55:45;81;66.6;44.2
76045;PMS7003;64741;41.730;44.788;2023-11-19T19:01:11;77.4;65;42.6
76045;PMS7003;64741;41.730;44.788;2023-11-19T19:05:41;80.6;65;42.8
76045;PMS7003;64741;41.730;44.788;2023-11-19T19:11:03;75.6;60.2;40
76045;PMS7003;64741;41.730;44.788;2023-11-19T19:16:07;76.8;63.8;43
76045;PMS7003;64741;41.730;44.788;2023-11-19T19:21:07;72.6;58.2;38.8
76045;PMS7003;64741;41.730;44.788;2023-11-19T19:26:07;74.6;59;38.8
76045;PMS7003;64741;41.730;44.788;2023-11-19T19:31:09;75.2;62.2;42
76045;PMS7003;64741;41.730;44.788;2023-11-19T19:36:13;73.8;60;39.8
76045;PMS7003;64741;41.730;44.788;2023-11-19T19:41:11;75;60.8;41
76045;PMS7003;64741;41.730;44.788;2023-11-19T19:46:04;73.6;58.6;38.4
76045;PMS7003;64741;41.730;44.788;2023-11-19T19:50:57;71.2;55.2;37.4
76045;PMS7003;64741;41.730;44.788;2023-11-19T19:56:06;70.4;54.8;37.2
76045;PMS7003;64741;41.730;44.788;2023-11-19T20:00:53;73.2;58.8;39.6
76045;PMS7003;64741;41.730;44.788;2023-11-19T20:06:11;72.8;57.4;38.2
76045;PMS7003;64741;41.730;44.788;2023-11-19T20:11:09;70.6;54.6;36
76045;PMS7003;64741;41.730;44.788;2023-11-19T20:16:01;71.2;56;37.6
76045;PMS7003;64741;41.730;44.788;2023-11-19T20:21:03;70.4;53.2;36
76045;PMS7003;64741;41.730;44.788;2023-11-19T20:26:03;71.4;54.4;35.8
76045;PMS7003;64741;41.730;44.788;2023-11-19T20:30:53;71.2;54;36.6
76045;PMS7003;64741;41.730;44.788;2023-11-19T20:35:39;67.8;52.8;35.6
76045;PMS7003;64741;41.730;44.788;2023-11-19T20:40:57;67.6;51.8;35
76045;PMS7003;64741;41.730;44.788;2023-11-19T20:46:11;67.4;51.8;34.4
76045;PMS7003;64741;41.730;44.788;2023-11-19T20:51:05;69.6;52.4;35
76045;PMS7003;64741;41.730;44.788;2023-11-19T20:56:13;67.4;51.4;34.4
76045;PMS7003;64741;41.730;44.788;2023-11-19T21:01:09;67;51.8;33.8
76045;PMS7003;64741;41.730;44.788;2023-11-19T21:06:13;67.2;51.4;35.4
76045;PMS7003;64741;41.730;44.788;2023-11-19T21:11:11;67.4;50.6;34
76045;PMS7003;64741;41.730;44.788;2023-11-19T21:16:05;61.8;47.6;32
76045;PMS7003;64741;41.730;44.788;2023-11-19T21:21:11;60.8;47;31
76045;PMS7003;64741;41.730;44.788;2023-11-19T21:26:07;61.4;46.4;30.6
76045;PMS7003;64741;41.730;44.788;2023-11-19T21:31:13;59.6;47;31
76045;PMS7003;64741;41.730;44.788;2023-11-19T21:36:11;59.6;44.6;30.2
76045;PMS7003;64741;41.730;44.788;2023-11-19T21:41:03;58.2;45.4;30.8
76045;PMS7003;64741;41.730;44.788;2023-11-19T21:45:53;56.6;44.8;30.4
76045;PMS7003;64741;41.730;44.788;2023-11-19T21:51:09;58.8;44.8;29.8
76045;PMS7003;64741;41.730;44.788;2023-11-19T21:56:15;57;44.8;30.2
76045;PMS7003;64741;41.730;44.788;2023-11-19T22:01:11;57.4;43.8;29.8
76045;PMS7003;64741;41.730;44.788;2023-11-19T22:06:03;54.8;43;28.6
76045;PMS7003;64741;41.730;44.788;2023-11-19T22:11:11;54.6;43.6;29
76045;PMS7003;64741;41.730;44.788;2023-11-19T22:16:07;54.6;42.8;27.6
76045;PMS7003;64741;41.730;44.788;2023-11-19T22:21:13;56.2;44;29.2
76045;PMS7003;64741;41.730;44.788;2023-11-19T22:26:11;54.8;42.8;28.6
76045;PMS7003;64741;41.730;44.788;2023-11-19T22:31:03;52.4;41.6;27.8
76045;PMS7003;64741;41.730;44.788;2023-11-19T22:36:13;52.6;41.2;27.8
76045;PMS7003;64741;41.730;44.788;2023-11-19T22:41:09;54;41.4;28
76045;PMS7003;64741;41.730;44.788;2023-11-19T22:46:15;50.4;41.6;28
76045;PMS7003;64741;41.730;44.788;2023-11-19T22:51:11;52.6;41.4;27.8
76045;PMS7003;64741;41.730;44.788;2023-11-19T22:56:03;52.8;40.8;27.8
76045;PMS7003;64741;41.730;44.788;2023-11-19T23:01:13;50.4;40.4;27.8
76045;PMS7003;64741;41.730;44.788;2023-11-19T23:06:07;49.4;39.2;26.8
76045;PMS7003;64741;41.730;44.788;2023-11-19T23:11:13;48;39.2;27
76045;PMS7003;64741;41.730;44.788;2023-11-19T23:16:13;47.8;39.5;26.5
76045;PMS7003;64741;41.730;44.788;2023-11-19T23:21:05;49.6;39.6;27
76045;PMS7003;64741;41.730;44.788;2023-11-19T23:26:13;49.2;38.4;26.2
76045;PMS7003;64741;41.730;44.788;2023-11-19T23:31:08;47.6;38.2;26.6
76045;PMS7003;64741;41.730;44.788;2023-11-19T23:36:13;49.4;39;26.6
76045;PMS7003;64741;41.730;44.788;2023-11-19T23:41:09;47.8;38.4;25.8
76045;PMS7003;64741;41.730;44.788;2023-11-19T23:46:03;43.4;35.6;24.6
76045;PMS7003;64741;41.730;44.788;2023-11-19T23:51:09;47;38.2;26.2
76045;PMS7003;64741;41.730;44.788;2023-11-19T23:56:07;46.6;37.2;26
